createdAt,value
2023-01-28T00:00:26.903Z,22.13
2023-01-28T00:05:33.881Z,21.47
2023-01-28T00:10:40.826Z,21.03
2023-01-28T00:15:49.508Z,21.37
2023-01-28T00:20:59.384Z,20.43
2023-01-28T00:26:10.709Z,19.50
2023-01-28T00:31:24.248Z,20.40
2023-01-28T00:36:31.424Z,18.43
2023-01-28T00:41:38.514Z,17.60
2023-01-28T00:46:45.654Z,18.70
2023-01-28T00:51:53.523Z,19.40
2023-01-28T00:57:00.427Z,18.63
2023-01-28T01:02:09.248Z,17.90
2023-01-28T01:07:16.354Z,21.37
2023-01-28T01:12:23.236Z,18.30
2023-01-28T01:17:32.509Z,18.23
2023-01-28T01:22:39.324Z,16.07
2023-01-28T01:27:48.660Z,14.00
2023-01-28T01:32:55.891Z,14.50
2023-01-28T01:38:02.931Z,16.13
2023-01-28T01:43:12.721Z,15.70
2023-01-28T01:48:22.561Z,16.93
2023-01-28T01:53:30.828Z,15.83
2023-01-28T01:58:41.526Z,17.27
2023-01-28T02:03:51.613Z,18.47
2023-01-28T02:08:59.064Z,18.83
2023-01-28T02:14:09.281Z,19.93
2023-01-28T02:19:19.775Z,17.27
2023-01-28T02:24:29.515Z,18.43
2023-01-28T02:29:39.678Z,19.27
2023-01-28T02:34:49.545Z,17.57
2023-01-28T02:39:59.356Z,17.87
2023-01-28T02:45:09.444Z,16.83
2023-01-28T02:50:19.395Z,15.43
2023-01-28T02:55:29.320Z,18.17
2023-01-28T03:00:40.527Z,17.83
2023-01-28T03:05:52.530Z,16.03
2023-01-28T03:11:02.686Z,15.63
2023-01-28T03:16:11.107Z,15.03
2023-01-28T03:21:22.555Z,14.60
2023-01-28T03:26:34.380Z,16.47
2023-01-28T03:31:43.963Z,15.53
2023-01-28T03:36:54.308Z,16.97
2023-01-28T03:42:05.737Z,15.43
2023-01-28T03:47:13.975Z,14.17
2023-01-28T03:52:23.730Z,14.13
2023-01-28T03:57:31.808Z,15.33
2023-01-28T04:02:40.689Z,16.67
2023-01-28T04:07:50.901Z,15.73
2023-01-28T04:12:59.477Z,16.93
2023-01-28T04:18:06.949Z,16.73
2023-01-28T04:23:14.152Z,17.83
2023-01-28T04:28:21.378Z,14.17
2023-01-28T04:33:29.441Z,16.60
2023-01-28T04:38:38.176Z,15.17
2023-01-28T04:43:46.834Z,16.97
2023-01-28T04:48:55.363Z,18.40
2023-01-28T04:54:03.898Z,16.73
2023-01-28T04:59:12.528Z,18.37
2023-01-28T05:04:20.193Z,18.23
2023-01-28T05:09:27.236Z,17.47
2023-01-28T05:14:34.528Z,17.63
2023-01-28T05:19:44.127Z,16.93
2023-01-28T05:24:52.866Z,15.00
2023-01-28T05:30:00.923Z,16.87
2023-01-28T05:35:08.612Z,16.27
2023-01-28T05:40:16.527Z,16.80
2023-01-28T05:45:24.103Z,17.80
2023-01-28T05:50:32.732Z,19.63
2023-01-28T05:55:41.313Z,20.07
2023-01-28T06:00:48.368Z,20.23
2023-01-28T06:05:56.859Z,21.47
2023-01-28T06:11:03.945Z,24.20
2023-01-28T06:16:12.552Z,22.60
2023-01-28T06:21:21.348Z,21.97
2023-01-28T06:26:29.326Z,22.60
2023-01-28T06:31:36.529Z,21.33
2023-01-28T06:36:43.625Z,21.03
2023-01-28T06:41:51.491Z,23.13
2023-01-28T06:46:58.522Z,22.60
2023-01-28T06:52:05.472Z,21.17
2023-01-28T06:57:12.425Z,21.87
2023-01-28T07:02:19.543Z,23.73
2023-01-28T07:07:26.429Z,22.23
2023-01-28T07:12:33.316Z,22.10
2023-01-28T07:17:42.436Z,22.60
2023-01-28T07:22:49.435Z,19.47
2023-01-28T07:27:56.241Z,18.30
2023-01-28T07:33:03.511Z,17.53
2023-01-28T07:38:10.670Z,17.53
2023-01-28T07:43:17.727Z,17.97
2023-01-28T07:48:25.550Z,19.57
2023-01-28T07:53:34.039Z,19.27
2023-01-28T07:58:41.017Z,19.87
2023-01-28T08:03:47.972Z,26.93
2023-01-28T08:08:55.495Z,17.33
2023-01-28T08:14:02.680Z,18.40
2023-01-28T08:19:09.464Z,16.77
2023-01-28T08:24:16.595Z,14.57
2023-01-28T08:29:23.629Z,16.20
2023-01-28T08:34:30.567Z,19.83
2023-01-28T08:39:37.391Z,18.53
2023-01-28T08:44:44.296Z,20.50
2023-01-28T08:49:51.207Z,20.37
2023-01-28T08:54:58.112Z,20.53
2023-01-28T09:00:06.207Z,21.00
2023-01-28T09:05:13.257Z,26.97
2023-01-28T09:10:21.119Z,36.13
2023-01-28T09:15:28.199Z,23.77
2023-01-28T09:20:36.022Z,21.30
2023-01-28T09:25:44.114Z,22.73
2023-01-28T09:30:51.058Z,24.17
2023-01-28T09:35:59.594Z,21.67
2023-01-28T09:41:09.405Z,16.07
2023-01-28T09:46:18.776Z,16.30
2023-01-28T09:51:28.597Z,15.57
2023-01-28T09:56:38.516Z,15.47
2023-01-28T10:01:46.529Z,15.77
2023-01-28T10:06:55.822Z,18.03
2023-01-28T10:12:05.682Z,13.57
2023-01-28T10:17:15.680Z,16.40
2023-01-28T10:22:26.106Z,14.20
2023-01-28T10:27:34.155Z,15.30
2023-01-28T10:32:43.947Z,14.27
2023-01-28T10:37:51.642Z,14.73
2023-01-28T10:42:58.533Z,11.97
2023-01-28T10:48:08.427Z,13.20
2023-01-28T10:53:15.316Z,14.47
2023-01-28T10:58:25.316Z,13.13
2023-01-28T11:03:32.897Z,13.27
2023-01-28T11:08:42.837Z,18.00
2023-01-28T11:13:52.257Z,14.10
2023-01-28T11:19:02.380Z,16.63
2023-01-28T11:24:12.310Z,13.30
2023-01-28T11:29:22.201Z,12.90
2023-01-28T11:34:31.654Z,14.73
2023-01-28T11:39:38.771Z,12.77
2023-01-28T11:44:47.011Z,13.10
2023-01-28T11:49:57.269Z,14.03
2023-01-28T11:55:04.645Z,15.00
2023-01-28T12:00:12.309Z,14.10
2023-01-28T12:05:22.733Z,16.07
2023-01-28T12:10:32.680Z,13.30
2023-01-28T12:15:40.776Z,13.47
2023-01-28T12:20:50.911Z,13.07
2023-01-28T12:26:00.665Z,13.50
2023-01-28T12:31:08.111Z,13.03
2023-01-28T12:36:18.120Z,13.73
2023-01-28T12:41:27.904Z,14.60
2023-01-28T12:46:37.244Z,13.70
2023-01-28T12:51:47.310Z,13.13
2023-01-28T12:56:56.033Z,13.30
2023-01-28T13:02:07.510Z,14.27
2023-01-28T13:07:15.617Z,12.40
2023-01-28T13:12:24.593Z,12.87
2023-01-28T13:17:33.969Z,14.73
2023-01-28T13:22:41.007Z,13.23
2023-01-28T13:27:51.122Z,14.87
2023-01-28T13:32:59.607Z,14.10
2023-01-28T13:38:09.581Z,14.20
2023-01-28T13:43:19.709Z,15.33
2023-01-28T13:48:30.116Z,15.63
2023-01-28T13:53:39.914Z,15.10
2023-01-28T13:58:50.031Z,16.33
2023-01-28T14:03:58.136Z,16.60
2023-01-28T14:09:07.975Z,16.60
2023-01-28T14:14:16.441Z,15.57
2023-01-28T14:19:26.276Z,15.77
2023-01-28T14:24:34.503Z,19.80
2023-01-28T14:29:44.303Z,17.50
2023-01-28T14:34:51.575Z,19.73
2023-01-28T14:39:59.642Z,19.03
2023-01-28T14:45:09.532Z,21.30
2023-01-28T14:50:19.424Z,19.37
2023-01-28T14:55:29.338Z,18.87
2023-01-28T15:00:37.189Z,20.10
2023-01-28T15:05:45.735Z,18.33
2023-01-28T15:10:55.067Z,21.87
2023-01-28T15:16:02.434Z,19.87
2023-01-28T15:21:10.549Z,22.13
2023-01-28T15:26:20.632Z,22.13
2023-01-28T15:31:30.729Z,19.97
2023-01-28T15:36:38.039Z,22.97
2023-01-28T15:41:48.110Z,20.17
2023-01-28T15:46:55.019Z,22.60
2023-01-28T15:52:02.766Z,21.13
2023-01-28T15:57:12.616Z,20.70
2023-01-28T16:02:22.487Z,20.23
2023-01-28T16:07:32.841Z,20.73
2023-01-28T16:12:40.119Z,17.73
2023-01-28T16:17:49.551Z,21.50
2023-01-28T16:22:59.236Z,18.30
2023-01-28T16:28:09.145Z,20.33
2023-01-28T16:33:18.982Z,18.43
2023-01-28T16:48:42.218Z,20.30
2023-01-28T16:53:50.829Z,20.77
2023-01-28T16:58:58.440Z,19.70
2023-01-28T17:04:11.244Z,23.87
2023-01-28T17:09:17.472Z,27.77
2023-01-28T17:14:25.196Z,23.43
2023-01-28T17:19:32.758Z,24.20
2023-01-28T17:24:39.721Z,34.70
2023-01-28T17:29:46.775Z,30.93
2023-01-28T17:34:53.726Z,25.90
2023-01-28T17:40:03.464Z,26.03
2023-01-28T17:45:11.158Z,28.37
2023-01-28T17:50:18.305Z,25.57
2023-01-28T17:55:26.477Z,21.33
2023-01-28T18:00:34.827Z,19.53
2023-01-28T18:05:42.596Z,19.13
2023-01-28T18:10:49.882Z,22.73
2023-01-28T18:15:56.754Z,20.77
2023-01-28T18:21:06.231Z,21.07
2023-01-28T18:26:13.090Z,22.37
2023-01-28T18:31:21.207Z,23.23
2023-01-28T18:36:28.425Z,21.87
2023-01-28T18:41:35.498Z,22.60
2023-01-28T18:46:43.047Z,21.03
2023-01-28T18:51:50.921Z,22.13
2023-01-28T18:56:58.126Z,23.23
2023-01-28T19:02:05.645Z,22.93
2023-01-28T19:07:12.793Z,24.77
2023-01-28T19:12:22.341Z,23.07
2023-01-28T19:17:28.683Z,23.43
2023-01-28T19:22:36.115Z,23.37
2023-01-28T19:27:43.488Z,27.70
2023-01-28T19:32:50.330Z,30.60
2023-01-28T19:37:57.385Z,28.27
2023-01-28T19:43:04.223Z,28.83
2023-01-28T19:48:11.083Z,28.80
2023-01-28T19:53:19.550Z,29.67
2023-01-28T19:58:26.933Z,28.00
2023-01-28T20:03:33.874Z,28.53
2023-01-28T20:08:40.924Z,25.83
2023-01-28T20:13:49.467Z,27.40
2023-01-28T20:18:59.478Z,32.83
2023-01-28T20:24:07.319Z,31.67
2023-01-28T20:29:18.621Z,29.10
2023-01-28T20:34:26.670Z,27.00
2023-01-28T20:39:33.734Z,27.87
2023-01-28T20:44:41.547Z,27.43
2023-01-28T20:49:48.450Z,29.83
2023-01-28T20:54:56.104Z,26.17
2023-01-28T21:00:03.380Z,26.13
2023-01-28T21:05:10.634Z,29.13
2023-01-28T21:10:18.214Z,28.70
2023-01-28T21:15:26.579Z,25.57
2023-01-28T21:20:35.345Z,25.53
2023-01-28T21:25:44.439Z,27.83
2023-01-28T21:30:51.371Z,27.07
2023-01-28T21:35:58.548Z,28.70
2023-01-28T21:41:06.439Z,30.47
2023-01-28T21:46:13.416Z,25.47
2023-01-28T21:51:22.117Z,23.83
2023-01-28T21:56:30.539Z,26.53
2023-01-28T22:01:37.427Z,24.73
2023-01-28T22:06:45.661Z,26.07
2023-01-28T22:11:53.143Z,24.27
2023-01-28T22:17:00.094Z,25.50
2023-01-28T22:22:07.776Z,24.83
2023-01-28T22:27:15.480Z,22.10
2023-01-28T22:32:22.414Z,20.90
2023-01-28T22:37:29.413Z,20.83
2023-01-28T22:42:36.532Z,21.60
2023-01-28T22:47:45.426Z,17.87
2023-01-28T22:52:53.737Z,18.53
2023-01-28T22:58:00.932Z,18.27
2023-01-28T23:03:09.645Z,25.90
2023-01-28T23:08:16.465Z,28.20
2023-01-28T23:13:26.352Z,26.50
2023-01-28T23:18:35.268Z,26.77
2023-01-28T23:23:43.860Z,20.57
2023-01-28T23:28:51.230Z,19.73
2023-01-28T23:33:58.186Z,20.97
2023-01-28T23:39:05.000Z,17.47
2023-01-28T23:44:11.986Z,18.70
2023-01-28T23:49:19.336Z,20.20
2023-01-28T23:54:26.355Z,21.53
2023-01-28T23:59:33.183Z,19.47
